createdAt,value
2017-08-20T00:00:01.559Z,99.99
2017-08-20T00:01:01.534Z,99.99
2017-08-20T00:02:01.585Z,99.99
2017-08-20T00:03:01.635Z,99.99
2017-08-20T00:04:01.684Z,99.99
2017-08-20T00:05:01.796Z,99.99
2017-08-20T00:06:01.858Z,99.99
2017-08-20T00:07:01.833Z,99.99
2017-08-20T00:08:01.885Z,99.99
2017-08-20T00:09:01.932Z,99.99
2017-08-20T00:10:01.984Z,99.99
2017-08-20T00:11:02.099Z,99.99
2017-08-20T00:12:02.087Z,99.99
2017-08-20T00:13:02.134Z,99.99
2017-08-20T00:14:02.185Z,99.99
2017-08-20T00:15:02.234Z,99.99
2017-08-20T00:16:02.344Z,99.99
2017-08-20T00:17:02.333Z,99.99
2017-08-20T00:18:02.384Z,99.99
2017-08-20T00:19:02.459Z,99.99
2017-08-20T00:20:02.485Z,99.99
2017-08-20T00:21:02.606Z,99.99
2017-08-20T00:22:02.586Z,99.99
2017-08-20T00:23:02.635Z,99.99
2017-08-20T00:24:02.684Z,99.99
2017-08-20T00:25:02.739Z,99.99
2017-08-20T00:26:02.857Z,99.99
2017-08-20T00:27:02.900Z,99.99
2017-08-20T00:28:02.885Z,99.99
2017-08-20T00:29:02.935Z,99.99
2017-08-20T00:30:02.984Z,99.99
2017-08-20T00:31:03.108Z,99.99
2017-08-20T00:32:03.085Z,99.99
2017-08-20T00:33:03.134Z,99.99
2017-08-20T00:34:03.185Z,99.99
2017-08-20T00:35:03.237Z,99.99
2017-08-20T00:36:03.365Z,99.99
2017-08-20T00:37:03.335Z,99.99
2017-08-20T00:38:03.384Z,99.99
2017-08-20T00:39:03.444Z,99.99
2017-08-20T00:40:03.486Z,99.99
2017-08-20T00:41:03.609Z,99.99
2017-08-20T00:42:03.586Z,99.99
2017-08-20T00:43:03.636Z,99.99
2017-08-20T00:44:03.685Z,99.99
2017-08-20T00:45:03.736Z,99.99
2017-08-20T00:46:03.847Z,99.99
2017-08-20T00:47:03.901Z,99.99
2017-08-20T00:48:03.887Z,99.99
2017-08-20T00:49:03.933Z,99.99
2017-08-20T00:50:03.984Z,99.99
2017-08-20T00:51:04.036Z,99.99
2017-08-20T00:52:04.146Z,99.99
2017-08-20T00:53:04.134Z,99.99
2017-08-20T00:54:04.186Z,99.99
2017-08-20T00:55:04.233Z,99.99
2017-08-20T00:56:04.292Z,99.99
2017-08-20T00:57:04.400Z,99.99
2017-08-20T00:58:04.385Z,99.99
2017-08-20T00:59:04.439Z,99.99
2017-08-20T01:00:04.486Z,99.99
2017-08-20T01:01:04.535Z,99.99
2017-08-20T01:02:04.650Z,99.99
2017-08-20T01:03:04.635Z,99.99
2017-08-20T01:04:04.689Z,99.99
2017-08-20T01:05:04.734Z,99.99
2017-08-20T01:06:04.786Z,99.99
2017-08-20T01:07:04.899Z,99.99
2017-08-20T01:08:04.887Z,99.99
2017-08-20T01:09:04.937Z,99.99
2017-08-20T01:10:04.985Z,99.99
2017-08-20T01:11:05.037Z,99.99
2017-08-20T01:12:05.150Z,99.99
2017-08-20T01:13:05.135Z,99.99
2017-08-20T01:14:05.187Z,99.99
2017-08-20T01:15:05.239Z,99.99
2017-08-20T01:16:05.287Z,99.99
2017-08-20T01:17:05.419Z,99.99
2017-08-20T01:18:05.389Z,99.99
2017-08-20T01:19:05.451Z,99.99
2017-08-20T01:20:05.491Z,99.99
2017-08-20T01:21:05.536Z,99.99
2017-08-20T01:22:05.660Z,99.99
2017-08-20T01:23:05.634Z,99.99
2017-08-20T01:24:05.689Z,99.99
2017-08-20T01:25:05.741Z,99.99
2017-08-20T01:26:05.791Z,99.99
2017-08-20T01:27:05.920Z,99.99
2017-08-20T01:28:05.888Z,99.99
2017-08-20T01:29:05.937Z,99.99
2017-08-20T01:30:06.005Z,99.99
2017-08-20T01:31:06.037Z,99.99
2017-08-20T01:32:06.150Z,99.99
2017-08-20T01:33:06.199Z,99.99
2017-08-20T01:34:06.189Z,99.99
2017-08-20T01:35:06.237Z,99.99
2017-08-20T01:36:06.288Z,99.99
2017-08-20T01:37:06.419Z,99.99
2017-08-20T01:38:06.389Z,99.99
2017-08-20T01:39:06.441Z,99.99
2017-08-20T01:40:06.490Z,99.99
2017-08-20T01:41:06.539Z,99.99
2017-08-20T01:42:06.674Z,99.99
2017-08-20T01:43:06.640Z,99.99
2017-08-20T01:44:06.687Z,99.99
2017-08-20T01:45:06.738Z,99.99
2017-08-20T01:46:06.815Z,99.99
2017-08-20T01:47:06.902Z,99.99
2017-08-20T01:48:06.952Z,99.99
2017-08-20T01:49:06.940Z,99.99
2017-08-20T01:50:06.990Z,99.99
2017-08-20T01:51:07.044Z,99.99
2017-08-20T01:52:07.088Z,99.99
2017-08-20T01:53:07.208Z,99.99
2017-08-20T01:54:07.191Z,99.99
2017-08-20T01:55:07.240Z,99.99
2017-08-20T01:56:07.298Z,99.99
2017-08-20T01:57:07.341Z,99.99
2017-08-20T01:58:07.454Z,99.99
2017-08-20T01:59:07.441Z,99.99
2017-08-20T02:00:07.491Z,99.99
2017-08-20T02:01:07.540Z,99.99
2017-08-20T02:02:07.589Z,99.99
2017-08-20T02:03:07.712Z,99.99
2017-08-20T02:04:07.693Z,99.99
2017-08-20T02:05:07.742Z,99.99
2017-08-20T02:06:07.790Z,99.99
2017-08-20T02:07:07.842Z,99.99
2017-08-20T02:08:07.952Z,99.99
2017-08-20T02:09:08.004Z,99.99
2017-08-20T02:10:07.993Z,99.99
2017-08-20T02:11:08.044Z,99.99
2017-08-20T02:12:08.099Z,99.99
2017-08-20T02:13:08.142Z,99.99
2017-08-20T02:14:08.253Z,99.99
2017-08-20T02:15:08.243Z,99.99
2017-08-20T02:16:08.293Z,99.99
2017-08-20T02:17:08.352Z,99.99
2017-08-20T02:18:08.396Z,99.99
2017-08-20T02:19:08.503Z,99.99
2017-08-20T02:20:08.491Z,99.99
2017-08-20T02:21:08.540Z,99.99
2017-08-20T02:22:08.592Z,99.99
2017-08-20T02:23:08.641Z,99.99
2017-08-20T02:24:08.778Z,99.99
2017-08-20T02:25:08.742Z,99.99
2017-08-20T02:26:08.792Z,99.99
2017-08-20T02:27:08.849Z,99.99
2017-08-20T02:28:08.892Z,99.99
2017-08-20T02:29:09.005Z,99.99
2017-08-20T02:30:09.054Z,99.99
2017-08-20T02:31:09.042Z,99.99
2017-08-20T02:32:09.096Z,99.99
2017-08-20T02:33:09.143Z,99.99
2017-08-20T02:34:09.193Z,99.99
2017-08-20T02:35:09.310Z,99.99
2017-08-20T02:36:09.296Z,99.99
2017-08-20T02:37:09.343Z,99.99
2017-08-20T02:38:09.392Z,99.99
2017-08-20T02:39:09.443Z,99.99
2017-08-20T02:40:09.553Z,99.99
2017-08-20T02:41:09.541Z,99.99
2017-08-20T02:42:09.590Z,99.99
2017-08-20T02:43:09.642Z,99.99
2017-08-20T02:44:09.712Z,99.99
2017-08-20T02:45:09.823Z,99.99
2017-08-20T02:46:09.792Z,99.99
2017-08-20T02:47:09.847Z,99.99
2017-08-20T02:48:09.891Z,99.99
2017-08-20T02:49:09.940Z,99.99
2017-08-20T02:50:10.074Z,99.99
2017-08-20T02:51:10.041Z,99.99
2017-08-20T02:52:10.092Z,99.99
2017-08-20T02:53:10.144Z,99.99
2017-08-20T02:54:10.190Z,99.99
2017-08-20T02:55:10.315Z,99.99
2017-08-20T02:56:10.290Z,99.99
2017-08-20T02:57:10.340Z,99.99
2017-08-20T02:58:10.389Z,99.99
2017-08-20T02:59:10.438Z,99.99
2017-08-20T03:00:10.570Z,99.99
2017-08-20T03:01:10.537Z,99.99
2017-08-20T03:02:10.588Z,99.99
2017-08-20T03:03:10.640Z,99.99
2017-08-20T03:04:10.690Z,99.99
2017-08-20T03:05:10.799Z,99.99
2017-08-20T03:06:10.851Z,99.99
2017-08-20T03:07:10.839Z,99.99
2017-08-20T03:08:10.889Z,99.99
2017-08-20T03:09:10.938Z,99.99
2017-08-20T03:10:10.989Z,99.99
2017-08-20T03:11:11.102Z,99.99
2017-08-20T03:12:11.088Z,99.99
2017-08-20T03:13:11.139Z,99.99
2017-08-20T03:14:11.188Z,99.99
2017-08-20T03:15:11.237Z,99.99
2017-08-20T03:16:11.350Z,99.99
2017-08-20T03:17:11.341Z,99.99
2017-08-20T03:18:11.387Z,99.99
2017-08-20T03:19:11.437Z,99.99
2017-08-20T03:20:11.488Z,99.99
2017-08-20T03:21:11.601Z,99.99
2017-08-20T03:22:11.587Z,99.99
2017-08-20T03:23:11.636Z,99.99
2017-08-20T03:24:11.688Z,99.99
2017-08-20T03:25:11.736Z,99.99
2017-08-20T03:26:11.852Z,99.99
2017-08-20T03:27:11.840Z,99.99
2017-08-20T03:28:11.886Z,99.99
2017-08-20T03:29:11.938Z,99.99
2017-08-20T03:30:11.990Z,99.99
2017-08-20T03:31:12.111Z,99.99
2017-08-20T03:32:12.085Z,99.99
2017-08-20T03:33:12.137Z,99.99
2017-08-20T03:34:12.192Z,99.99
2017-08-20T03:35:12.236Z,99.99
2017-08-20T03:36:12.372Z,99.99
2017-08-20T03:37:12.331Z,99.99
2017-08-20T03:38:12.386Z,99.99
2017-08-20T03:39:12.434Z,99.99
2017-08-20T03:40:12.487Z,99.99
2017-08-20T03:41:12.609Z,99.99
2017-08-20T03:42:12.584Z,99.99
2017-08-20T03:43:12.631Z,99.99
2017-08-20T03:44:12.701Z,99.99
2017-08-20T03:45:12.742Z,99.99
2017-08-20T03:46:12.869Z,99.99
2017-08-20T03:47:12.836Z,99.99
2017-08-20T03:48:12.884Z,99.99
2017-08-20T03:49:12.936Z,99.99
2017-08-20T03:50:12.985Z,99.99
2017-08-20T03:51:13.098Z,99.99
2017-08-20T03:52:13.151Z,99.99
2017-08-20T03:53:13.135Z,99.99
2017-08-20T03:54:13.184Z,99.99
2017-08-20T03:55:13.233Z,99.99
2017-08-20T03:56:13.279Z,99.99
2017-08-20T03:57:13.395Z,99.99
2017-08-20T03:58:13.383Z,99.99
2017-08-20T03:59:13.433Z,99.99
2017-08-20T04:00:13.481Z,99.99
2017-08-20T04:01:13.563Z,99.99
2017-08-20T04:02:13.659Z,99.99
2017-08-20T04:03:13.634Z,99.99
2017-08-20T04:04:13.683Z,99.99
2017-08-20T04:05:13.730Z,99.99
2017-08-20T04:06:13.781Z,99.99
2017-08-20T04:07:13.912Z,99.99
2017-08-20T04:08:13.880Z,99.99
2017-08-20T04:09:14.589Z,99.99
2017-08-20T04:10:13.981Z,99.99
2017-08-20T04:11:14.029Z,99.99
2017-08-20T04:12:14.156Z,99.99
2017-08-20T04:13:14.130Z,99.99
2017-08-20T04:14:14.180Z,99.99
2017-08-20T04:15:14.228Z,99.99
2017-08-20T04:16:14.278Z,99.99
2017-08-20T04:17:14.388Z,99.99
2017-08-20T04:18:14.442Z,99.99
2017-08-20T04:19:14.427Z,99.99
2017-08-20T04:20:14.477Z,99.99
2017-08-20T04:21:14.527Z,99.99
2017-08-20T04:22:14.577Z,99.99
2017-08-20T04:23:14.688Z,99.99
2017-08-20T04:24:14.675Z,99.99
2017-08-20T04:25:14.725Z,99.99
2017-08-20T04:26:14.774Z,99.99
2017-08-20T04:27:14.824Z,99.99
2017-08-20T04:28:14.936Z,99.99
2017-08-20T04:29:14.921Z,99.99
2017-08-20T04:30:14.973Z,99.99
2017-08-20T04:31:15.022Z,99.99
2017-08-20T04:32:15.071Z,99.99
2017-08-20T04:33:15.201Z,99.99
2017-08-20T04:34:15.171Z,99.99
2017-08-20T04:35:15.218Z,99.99
2017-08-20T04:36:15.270Z,99.99
2017-08-20T04:37:15.322Z,99.99
2017-08-20T04:38:15.447Z,99.99
2017-08-20T04:39:15.417Z,99.99
2017-08-20T04:40:15.466Z,99.99
2017-08-20T04:41:15.515Z,99.99
2017-08-20T04:42:15.575Z,99.99
2017-08-20T04:43:15.677Z,99.99
2017-08-20T04:44:15.727Z,99.99
2017-08-20T04:45:15.713Z,99.99
2017-08-20T04:46:15.764Z,99.99
2017-08-20T04:47:15.813Z,99.99
2017-08-20T04:48:15.863Z,99.99
2017-08-20T04:49:16.165Z,99.99
2017-08-20T04:50:15.969Z,99.99
2017-08-20T04:51:16.009Z,99.99
2017-08-20T04:52:16.062Z,99.99
2017-08-20T04:53:16.108Z,99.99
2017-08-20T04:54:16.230Z,99.99
2017-08-20T04:55:16.208Z,99.99
2017-08-20T04:56:16.257Z,99.99
2017-08-20T04:57:16.307Z,99.99
2017-08-20T04:58:16.355Z,99.99
2017-08-20T04:59:16.487Z,99.99
2017-08-20T05:00:16.451Z,99.99
2017-08-20T05:01:16.503Z,99.99
2017-08-20T05:02:16.552Z,99.99
2017-08-20T05:03:16.601Z,99.99
2017-08-20T05:04:16.729Z,99.99
2017-08-20T05:05:16.699Z,99.99
2017-08-20T05:06:16.751Z,99.99
2017-08-20T05:07:16.800Z,99.99
2017-08-20T05:08:16.849Z,99.99
2017-08-20T05:09:16.988Z,99.99
2017-08-20T05:10:16.947Z,99.99
2017-08-20T05:11:16.996Z,99.99
2017-08-20T05:12:17.048Z,99.99
2017-08-20T05:13:17.094Z,99.99
2017-08-20T05:14:17.207Z,99.99
2017-08-20T05:15:17.667Z,99.99
2017-08-20T05:16:17.245Z,99.99
2017-08-20T05:17:17.293Z,99.99
2017-08-20T05:18:17.345Z,99.99
2017-08-20T05:19:17.471Z,99.99
2017-08-20T05:20:17.441Z,99.99
2017-08-20T05:21:17.495Z,99.99
2017-08-20T05:22:17.540Z,99.99
2017-08-20T05:23:17.588Z,99.99
2017-08-20T05:24:17.709Z,99.99
2017-08-20T05:25:17.689Z,99.99
2017-08-20T05:26:17.741Z,99.99
2017-08-20T05:27:17.787Z,99.99
2017-08-20T05:28:17.837Z,99.99
2017-08-20T05:29:17.957Z,99.99
2017-08-20T05:30:17.998Z,99.99
2017-08-20T05:31:17.986Z,99.99
2017-08-20T05:32:18.033Z,99.99
2017-08-20T05:33:18.090Z,99.99
2017-08-20T05:34:18.131Z,99.99
2017-08-20T05:35:18.244Z,99.99
2017-08-20T05:36:18.232Z,99.99
2017-08-20T05:37:18.283Z,99.99
2017-08-20T05:38:18.330Z,99.99
2017-08-20T05:39:18.382Z,99.99
2017-08-20T05:40:18.510Z,99.99
2017-08-20T05:41:18.481Z,99.99
2017-08-20T05:42:18.526Z,99.99
2017-08-20T05:43:18.579Z,99.99
2017-08-20T05:44:18.627Z,99.99
2017-08-20T05:45:18.737Z,99.99
2017-08-20T05:46:18.792Z,99.99
2017-08-20T05:47:18.774Z,99.99
2017-08-20T05:48:18.826Z,99.99
2017-08-20T05:49:18.875Z,99.99
2017-08-20T05:50:18.925Z,99.99
2017-08-20T05:51:19.037Z,99.99
2017-08-20T05:52:19.025Z,99.99
2017-08-20T05:53:19.072Z,99.99
2017-08-20T05:54:19.123Z,99.99
2017-08-20T05:55:19.172Z,99.99
2017-08-20T05:56:19.288Z,99.99
2017-08-20T05:57:19.271Z,99.99
2017-08-20T05:58:19.322Z,99.99
2017-08-20T05:59:19.369Z,99.99
2017-08-20T06:00:19.421Z,99.99
2017-08-20T06:01:19.533Z,99.99
2017-08-20T06:02:19.522Z,99.99
2017-08-20T06:03:19.571Z,99.99
2017-08-20T06:04:19.623Z,99.99
2017-08-20T06:05:19.669Z,99.99
2017-08-20T06:06:19.792Z,99.99
2017-08-20T06:07:19.772Z,99.99
2017-08-20T06:08:19.823Z,99.99
2017-08-20T06:09:19.873Z,99.99
2017-08-20T06:10:19.919Z,99.99
2017-08-20T06:11:20.057Z,99.99
2017-08-20T06:12:20.020Z,99.99
2017-08-20T06:13:20.070Z,99.99
2017-08-20T06:14:20.119Z,99.99
2017-08-20T06:15:20.170Z,99.99
2017-08-20T06:16:20.293Z,99.99
2017-08-20T06:17:20.274Z,99.99
2017-08-20T06:18:20.321Z,99.99
2017-08-20T06:19:20.372Z,99.99
2017-08-20T06:20:20.421Z,99.99
2017-08-20T06:21:20.555Z,99.99
2017-08-20T06:22:20.522Z,99.99
2017-08-20T06:23:20.571Z,99.99
2017-08-20T06:24:20.623Z,99.99
2017-08-20T06:25:20.674Z,99.99
2017-08-20T06:26:20.795Z,99.99
2017-08-20T06:27:20.776Z,99.99
2017-08-20T06:28:20.825Z,99.99
2017-08-20T06:29:20.874Z,99.99
2017-08-20T06:30:20.926Z,99.99
2017-08-20T06:31:21.038Z,99.99
2017-08-20T06:32:21.087Z,99.99
2017-08-20T06:33:21.076Z,99.99
2017-08-20T06:34:21.127Z,99.99
2017-08-20T06:35:21.179Z,99.99
2017-08-20T06:36:21.232Z,99.99
2017-08-20T06:37:21.340Z,99.99
2017-08-20T06:38:21.329Z,99.99
2017-08-20T06:39:21.385Z,99.99
2017-08-20T06:40:21.430Z,99.99
2017-08-20T06:41:21.482Z,99.99
2017-08-20T06:42:21.615Z,99.99
2017-08-20T06:43:21.582Z,99.99
2017-08-20T06:44:22.615Z,99.99
2017-08-20T06:45:21.683Z,99.99
2017-08-20T06:46:21.744Z,99.53
2017-08-20T06:47:21.858Z,98.19
2017-08-20T06:48:21.839Z,95.75
2017-08-20T06:49:21.887Z,97.91
2017-08-20T06:50:21.939Z,92.91
2017-08-20T06:51:21.989Z,90.07
2017-08-20T06:52:22.128Z,87.95
2017-08-20T06:53:22.097Z,82.98
2017-08-20T06:54:22.144Z,81.77
2017-08-20T06:55:22.198Z,78.02
2017-08-20T06:56:22.248Z,77.86
2017-08-20T06:57:22.373Z,76.93
2017-08-20T06:58:22.351Z,76.20
2017-08-20T06:59:22.406Z,75.65
2017-08-20T07:00:22.455Z,78.11
2017-08-20T07:01:22.506Z,82.08
2017-08-20T07:02:22.641Z,81.75
2017-08-20T07:03:22.610Z,85.50
2017-08-20T07:04:22.663Z,88.24
2017-08-20T07:05:22.719Z,86.99
2017-08-20T07:06:22.765Z,88.48
2017-08-20T07:07:22.890Z,83.52
2017-08-20T07:08:22.872Z,79.38
2017-08-20T07:09:22.920Z,76.94
2017-08-20T07:10:22.975Z,80.17
2017-08-20T07:11:23.032Z,84.59
2017-08-20T07:12:23.144Z,87.09
2017-08-20T07:13:23.191Z,89.64
2017-08-20T07:14:23.182Z,88.01
2017-08-20T07:15:23.237Z,83.45
2017-08-20T07:16:23.287Z,87.49
2017-08-20T07:17:23.339Z,90.75
2017-08-20T07:18:23.452Z,93.87
2017-08-20T07:19:23.450Z,94.83
2017-08-20T07:20:23.497Z,89.75
2017-08-20T07:21:23.550Z,95.60
2017-08-20T07:22:23.601Z,93.44
2017-08-20T07:23:23.732Z,93.73
2017-08-20T07:24:23.704Z,91.42
2017-08-20T07:25:23.759Z,93.82
2017-08-20T07:26:23.810Z,92.39
2017-08-20T07:27:23.857Z,93.68
2017-08-20T07:28:23.975Z,95.51
2017-08-20T07:29:24.033Z,94.45
2017-08-20T07:30:24.028Z,97.56
2017-08-20T07:31:24.070Z,94.79
2017-08-20T07:32:24.121Z,96.99
2017-08-20T07:33:24.171Z,96.99
2017-08-20T07:34:24.285Z,97.28
2017-08-20T07:35:24.279Z,99.39
2017-08-20T07:36:24.349Z,99.99
2017-08-20T07:37:24.377Z,98.43
2017-08-20T07:38:24.432Z,99.29
2017-08-20T07:39:24.560Z,99.99
2017-08-20T07:40:24.535Z,99.99
2017-08-20T07:41:24.584Z,99.99
2017-08-20T07:42:24.636Z,99.99
2017-08-20T07:43:24.688Z,99.99
2017-08-20T07:44:24.814Z,99.99
2017-08-20T07:45:24.789Z,99.82
2017-08-20T07:46:24.838Z,99.99
2017-08-20T07:47:24.892Z,99.99
2017-08-20T07:48:24.951Z,99.99
2017-08-20T07:49:25.062Z,98.00
2017-08-20T07:50:25.111Z,99.99
2017-08-20T07:51:25.110Z,99.99
2017-08-20T07:52:25.148Z,97.61
2017-08-20T07:53:25.200Z,99.99
2017-08-20T07:54:25.254Z,99.99
2017-08-20T07:55:25.367Z,99.99
2017-08-20T07:56:25.355Z,99.99
2017-08-20T07:57:25.405Z,97.66
2017-08-20T07:58:25.456Z,97.66
2017-08-20T07:59:25.505Z,99.99
2017-08-20T08:00:25.620Z,96.85
2017-08-20T08:01:25.614Z,92.24
2017-08-20T08:02:25.663Z,93.88
2017-08-20T08:03:25.712Z,91.19
2017-08-20T08:04:25.764Z,89.17
2017-08-20T08:05:25.887Z,89.36
2017-08-20T08:06:25.865Z,88.59
2017-08-20T08:07:25.920Z,85.11
2017-08-20T08:08:25.968Z,80.87
2017-08-20T08:09:26.020Z,76.76
2017-08-20T08:10:26.154Z,72.12
2017-08-20T08:11:26.123Z,71.96
2017-08-20T08:12:26.175Z,68.87
2017-08-20T08:13:26.237Z,66.01
2017-08-20T08:14:26.279Z,63.31
2017-08-20T08:15:26.394Z,64.01
2017-08-20T08:16:26.444Z,66.53
2017-08-20T08:17:26.434Z,65.88
2017-08-20T08:18:26.486Z,63.76
2017-08-20T08:19:26.538Z,64.92
2017-08-20T08:20:26.674Z,63.60
2017-08-20T08:21:26.646Z,65.63
2017-08-20T08:22:26.701Z,61.57
2017-08-20T08:23:26.749Z,62.95
2017-08-20T08:24:26.801Z,61.69
2017-08-20T08:25:26.930Z,59.92
2017-08-20T08:26:26.911Z,63.69
2017-08-20T08:27:26.967Z,64.79
2017-08-20T08:28:27.019Z,66.91
2017-08-20T08:29:27.068Z,62.30
2017-08-20T08:30:27.207Z,61.53
2017-08-20T08:31:27.177Z,59.50
2017-08-20T08:32:27.232Z,60.47
2017-08-20T08:33:27.282Z,59.50
2017-08-20T08:34:27.337Z,56.60
2017-08-20T08:35:27.468Z,58.82
2017-08-20T08:36:27.451Z,60.27
2017-08-20T08:37:27.500Z,61.40
2017-08-20T08:38:27.558Z,57.46
2017-08-20T08:39:27.609Z,57.34
2017-08-20T08:40:27.731Z,61.66
2017-08-20T08:41:27.784Z,61.63
2017-08-20T08:42:27.776Z,62.57
2017-08-20T08:43:27.830Z,59.13
2017-08-20T08:44:27.887Z,59.93
2017-08-20T08:45:27.939Z,63.43
2017-08-20T08:46:28.059Z,65.56
2017-08-20T08:47:28.047Z,61.77
2017-08-20T08:48:28.102Z,62.40
2017-08-20T08:49:28.156Z,63.21
2017-08-20T08:50:28.211Z,65.08
2017-08-20T08:51:28.353Z,64.79
2017-08-20T08:52:28.322Z,61.33
2017-08-20T08:53:28.376Z,63.08
2017-08-20T08:54:28.431Z,60.37
2017-08-20T08:55:28.494Z,58.24
2017-08-20T08:56:28.614Z,55.89
2017-08-20T08:57:28.597Z,56.93
2017-08-20T08:58:28.651Z,55.89
2017-08-20T08:59:28.708Z,54.35
2017-08-20T09:00:28.762Z,54.49
2017-08-20T09:01:28.897Z,55.17
2017-08-20T09:02:28.876Z,54.79
2017-08-20T09:03:28.929Z,55.20
2017-08-20T09:04:28.985Z,57.46
2017-08-20T09:05:29.039Z,58.70
2017-08-20T09:06:29.171Z,57.89
2017-08-20T09:07:29.151Z,59.44
2017-08-20T09:08:29.209Z,61.21
2017-08-20T09:09:29.265Z,63.08
2017-08-20T09:10:29.325Z,58.31
2017-08-20T09:11:29.447Z,58.89
2017-08-20T09:12:29.432Z,59.56
2017-08-20T09:13:29.493Z,60.53
2017-08-20T09:14:29.542Z,55.09
2017-08-20T09:15:29.603Z,55.38
2017-08-20T09:16:29.720Z,58.73
2017-08-20T09:17:29.775Z,58.64
2017-08-20T09:18:29.768Z,61.54
2017-08-20T09:19:29.826Z,61.66
2017-08-20T09:20:29.879Z,59.38
2017-08-20T09:21:29.935Z,55.60
2017-08-20T09:22:30.051Z,51.64
2017-08-20T09:23:30.045Z,53.99
2017-08-20T09:24:30.103Z,56.76
2017-08-20T09:25:30.159Z,53.77
2017-08-20T09:26:30.214Z,51.71
2017-08-20T09:27:30.333Z,55.83
2017-08-20T09:28:30.328Z,54.10
2017-08-20T09:29:30.391Z,52.17
2017-08-20T09:30:30.439Z,55.52
2017-08-20T09:31:30.496Z,56.58
2017-08-20T09:32:30.615Z,57.71
2017-08-20T09:33:30.608Z,57.14
2017-08-20T09:34:30.662Z,61.86
2017-08-20T09:35:30.716Z,65.05
2017-08-20T09:36:30.776Z,66.46
2017-08-20T09:37:30.893Z,63.76
2017-08-20T09:38:30.885Z,66.46
2017-08-20T09:39:30.942Z,63.57
2017-08-20T09:40:30.999Z,61.16
2017-08-20T09:41:31.070Z,68.77
2017-08-20T09:42:31.193Z,66.94
2017-08-20T09:43:31.162Z,68.39
2017-08-20T09:44:31.220Z,68.49
2017-08-20T09:45:31.274Z,64.82
2017-08-20T09:46:31.331Z,62.89
2017-08-20T09:47:31.460Z,60.68
2017-08-20T09:48:31.442Z,62.99
2017-08-20T09:49:31.494Z,61.54
2017-08-20T09:50:31.551Z,62.54
2017-08-20T09:51:31.610Z,59.16
2017-08-20T09:52:31.744Z,60.71
2017-08-20T09:53:31.717Z,60.35
2017-08-20T09:54:31.772Z,59.28
2017-08-20T09:55:31.828Z,61.70
2017-08-20T09:56:31.883Z,61.51
2017-08-20T09:57:32.009Z,56.87
2017-08-20T09:58:31.992Z,62.76
2017-08-20T09:59:32.048Z,59.51
2017-08-20T10:00:32.104Z,59.22
2017-08-20T10:01:32.157Z,56.71
2017-08-20T10:02:32.281Z,53.64
2017-08-20T10:03:32.338Z,52.51
2017-08-20T10:04:32.328Z,52.22
2017-08-20T10:05:32.383Z,49.60
2017-08-20T10:06:32.442Z,48.69
2017-08-20T10:07:32.498Z,52.14
2017-08-20T10:08:32.628Z,49.90
2017-08-20T10:09:32.606Z,51.15
2017-08-20T10:10:32.660Z,53.37
2017-08-20T10:11:32.718Z,52.62
2017-08-20T10:12:32.777Z,54.49
2017-08-20T10:13:32.911Z,54.32
2017-08-20T10:14:32.886Z,53.81
2017-08-20T10:15:32.941Z,58.09
2017-08-20T10:16:32.999Z,55.57
2017-08-20T10:17:33.052Z,52.94
2017-08-20T10:18:33.244Z,53.52
2017-08-20T10:19:33.227Z,55.90
2017-08-20T10:20:33.223Z,53.88
2017-08-20T10:21:33.278Z,56.77
2017-08-20T10:22:33.337Z,55.04
2017-08-20T10:23:33.392Z,55.33
2017-08-20T10:24:33.509Z,55.04
2017-08-20T10:25:33.503Z,59.28
2017-08-20T10:26:33.563Z,60.35
2017-08-20T10:27:33.617Z,57.04
2017-08-20T10:28:33.677Z,56.21
2017-08-20T10:29:33.795Z,57.72
2017-08-20T10:30:33.782Z,61.77
2017-08-20T10:31:33.840Z,66.62
2017-08-20T10:32:33.894Z,61.93
2017-08-20T10:33:33.951Z,60.28
2017-08-20T10:34:34.088Z,60.51
2017-08-20T10:35:34.064Z,57.42
2017-08-20T10:36:34.120Z,57.78
2017-08-20T10:37:34.175Z,58.01
2017-08-20T10:38:34.229Z,60.77
2017-08-20T10:39:34.348Z,60.35
2017-08-20T10:40:34.404Z,60.28
2017-08-20T10:41:34.396Z,60.89
2017-08-20T10:42:34.460Z,59.32
2017-08-20T10:43:34.506Z,59.39
2017-08-20T10:44:34.563Z,58.69
2017-08-20T10:45:34.680Z,61.29
2017-08-20T10:46:34.672Z,62.60
2017-08-20T10:47:34.729Z,57.90
2017-08-20T10:48:34.783Z,58.10
2017-08-20T10:49:34.838Z,59.86
2017-08-20T10:50:34.958Z,57.09
2017-08-20T10:51:34.957Z,56.80
2017-08-20T10:52:35.006Z,55.40
2017-08-20T10:53:35.061Z,57.20
2017-08-20T10:54:35.115Z,57.85
2017-08-20T10:55:35.257Z,59.03
2017-08-20T10:56:35.226Z,63.70
2017-08-20T10:57:35.281Z,61.70
2017-08-20T10:58:35.342Z,56.13
2017-08-20T10:59:35.392Z,53.78
2017-08-20T11:00:35.521Z,56.58
2017-08-20T11:01:35.504Z,58.25
2017-08-20T11:02:35.568Z,56.15
2017-08-20T11:03:35.617Z,55.67
2017-08-20T11:04:35.678Z,53.61
2017-08-20T11:05:35.811Z,53.53
2017-08-20T11:06:35.784Z,55.68
2017-08-20T11:07:35.841Z,55.01
2017-08-20T11:08:35.894Z,58.42
2017-08-20T11:09:35.954Z,56.41
2017-08-20T11:10:36.081Z,53.45
2017-08-20T11:11:36.088Z,51.83
2017-08-20T11:12:36.118Z,51.90
2017-08-20T11:13:36.177Z,52.97
2017-08-20T11:14:36.232Z,52.31
2017-08-20T11:15:36.353Z,50.55
2017-08-20T11:16:36.407Z,53.06
2017-08-20T11:17:36.401Z,52.07
2017-08-20T11:18:36.455Z,54.19
2017-08-20T11:19:36.511Z,53.71
2017-08-20T11:20:36.571Z,53.45
2017-08-20T11:21:36.689Z,52.87
2017-08-20T11:22:36.683Z,53.55
2017-08-20T11:23:36.741Z,52.19
2017-08-20T11:24:36.795Z,53.81
2017-08-20T11:25:36.851Z,55.13
2017-08-20T11:26:36.992Z,54.62
2017-08-20T11:27:36.963Z,54.94
2017-08-20T11:28:37.023Z,53.85
2017-08-20T11:29:37.075Z,55.20
2017-08-20T11:30:37.132Z,55.18
2017-08-20T11:31:37.257Z,57.20
2017-08-20T11:32:37.307Z,55.27
2017-08-20T11:33:37.303Z,55.18
2017-08-20T11:34:37.360Z,57.62
2017-08-20T11:35:37.414Z,55.52
2017-08-20T11:36:37.471Z,53.83
2017-08-20T11:37:37.593Z,52.89
2017-08-20T11:38:37.586Z,53.69
2017-08-20T11:39:37.643Z,53.09
2017-08-20T11:40:37.701Z,50.70
2017-08-20T11:41:37.754Z,56.79
2017-08-20T11:42:37.874Z,53.81
2017-08-20T11:43:37.868Z,51.81
2017-08-20T11:44:37.928Z,48.32
2017-08-20T11:45:37.980Z,48.61
2017-08-20T11:46:38.040Z,50.07
2017-08-20T11:47:38.160Z,49.34
2017-08-20T11:48:38.158Z,50.38
2017-08-20T11:49:38.213Z,50.81
2017-08-20T11:50:38.270Z,53.91
2017-08-20T11:51:38.328Z,51.90
2017-08-20T11:52:38.456Z,52.02
2017-08-20T11:53:38.444Z,54.08
2017-08-20T11:54:38.501Z,48.74
2017-08-20T11:55:38.564Z,48.79
2017-08-20T11:56:38.615Z,51.10
2017-08-20T11:57:38.736Z,52.19
2017-08-20T11:58:38.793Z,49.63
2017-08-20T11:59:38.792Z,51.07
2017-08-20T12:00:38.850Z,54.27
2017-08-20T12:01:38.906Z,54.58
2017-08-20T12:02:38.963Z,52.77
2017-08-20T12:03:39.081Z,49.77
2017-08-20T12:04:39.082Z,52.26
2017-08-20T12:05:39.140Z,52.09
2017-08-20T12:06:39.191Z,52.77
2017-08-20T12:07:39.254Z,52.22
2017-08-20T12:08:39.392Z,51.15
2017-08-20T12:09:39.371Z,51.44
2017-08-20T12:10:39.424Z,50.28
2017-08-20T12:11:39.484Z,51.13
2017-08-20T12:12:39.544Z,52.12
2017-08-20T12:13:39.670Z,55.53
2017-08-20T12:14:39.656Z,50.70
2017-08-20T12:15:39.718Z,51.52
2017-08-20T12:16:39.775Z,47.14
2017-08-20T12:17:39.833Z,49.46
2017-08-20T12:18:39.955Z,51.49
2017-08-20T12:19:40.009Z,51.01
2017-08-20T12:20:40.006Z,52.33
2017-08-20T12:21:40.066Z,55.42
2017-08-20T12:22:40.123Z,51.63
2017-08-20T12:23:40.180Z,53.27
2017-08-20T12:24:40.304Z,55.04
2017-08-20T12:25:40.296Z,54.27
2017-08-20T12:26:40.354Z,51.59
2017-08-20T12:27:40.413Z,55.96
2017-08-20T12:28:40.473Z,49.02
2017-08-20T12:29:40.603Z,47.72
2017-08-20T12:30:40.587Z,50.93
2017-08-20T12:31:40.647Z,49.12
2017-08-20T12:32:40.704Z,46.80
2017-08-20T12:33:40.761Z,48.93
2017-08-20T12:34:40.887Z,48.66
2017-08-20T12:35:40.880Z,49.17
2017-08-20T12:36:40.937Z,48.57
2017-08-20T12:37:40.997Z,49.00
2017-08-20T12:38:41.057Z,51.93
2017-08-20T12:39:41.196Z,48.23
2017-08-20T12:40:41.173Z,48.49
2017-08-20T12:41:41.233Z,51.63
2017-08-20T12:42:41.290Z,51.75
2017-08-20T12:43:41.351Z,54.87
2017-08-20T12:44:41.481Z,50.74
2017-08-20T12:45:41.467Z,47.14
2017-08-20T12:46:41.530Z,48.42
2017-08-20T12:47:41.590Z,49.29
2017-08-20T12:48:41.649Z,48.59
2017-08-20T12:49:41.788Z,49.65
2017-08-20T12:50:41.763Z,52.67
2017-08-20T12:51:41.822Z,50.86
2017-08-20T12:52:41.889Z,48.79